sensor_id;sensor_type;location;lat;lon;timestamp;noise_LAeq;noise_LA_min;noise_LA_max;noise_LA01;noise_LA95
71030;Laerm;63723;51.436;5.976;2023-06-22T00:00:06;61.24;56.03;73.89;;
71030;Laerm;63723;51.436;5.976;2023-06-22T00:00:21;60.10;55.85;68.24;;
71030;Laerm;63723;51.436;5.976;2023-06-22T00:00:31;59.94;56.01;69.70;;
71030;Laerm;63723;51.436;5.976;2023-06-22T00:00:41;61.42;56.21;70.01;;
71030;Laerm;63723;51.436;5.976;2023-06-22T00:00:52;59.06;55.30;68.44;;
71030;Laerm;63723;51.436;5.976;2023-06-22T00:01:03;59.52;56.04;73.80;;
71030;Laerm;63723;51.436;5.976;2023-06-22T00:01:13;59.09;56.06;69.70;;
71030;Laerm;63723;51.436;5.976;2023-06-22T00:01:23;59.09;56.07;69.23;;
71030;Laerm;63723;51.436;5.976;2023-06-22T00:01:34;59.04;55.40;68.62;;
71030;Laerm;63723;51.436;5.976;2023-06-22T00:01:45;58.83;55.74;68.83;;
71030;Laerm;63723;51.436;5.976;2023-06-22T00:01:55;60.24;56.06;69.52;;
71030;Laerm;63723;51.436;5.976;2023-06-22T00:02:05;60.96;55.86;75.51;;
71030;Laerm;63723;51.436;5.976;2023-06-22T00:02:15;60.52;56.08;73.35;;
71030;Laerm;63723;51.436;5.976;2023-06-22T00:02:26;58.87;56.14;69.11;;
71030;Laerm;63723;51.436;5.976;2023-06-22T00:02:36;59.66;56.05;69.99;;
71030;Laerm;63723;51.436;5.976;2023-06-22T00:02:46;58.63;56.29;61.05;;
71030;Laerm;63723;51.436;5.976;2023-06-22T00:02:56;60.72;56.07;75.89;;
71030;Laerm;63723;51.436;5.976;2023-06-22T00:03:07;59.30;55.91;68.92;;
71030;Laerm;63723;51.436;5.976;2023-06-22T00:03:17;59.58;56.04;74.11;;
71030;Laerm;63723;51.436;5.976;2023-06-22T00:03:27;59.48;56.22;73.77;;
71030;Laerm;63723;51.436;5.976;2023-06-22T00:03:38;60.19;56.32;75.29;;
71030;Laerm;63723;51.436;5.976;2023-06-22T00:03:48;58.93;56.16;69.21;;
71030;Laerm;63723;51.436;5.976;2023-06-22T00:03:58;62.40;55.85;69.97;;
71030;Laerm;63723;51.436;5.976;2023-06-22T00:04:08;59.25;56.32;67.60;;
71030;Laerm;63723;51.436;5.976;2023-06-22T00:04:19;58.51;56.01;60.76;;
71030;Laerm;63723;51.436;5.976;2023-06-22T00:04:29;59.00;55.35;68.38;;
71030;Laerm;63723;51.436;5.976;2023-06-22T00:04:39;59.84;56.08;76.47;;
71030;Laerm;63723;51.436;5.976;2023-06-22T00:04:50;59.01;56.00;69.67;;
71030;Laerm;63723;51.436;5.976;2023-06-22T00:05:00;59.61;56.14;70.46;;
71030;Laerm;63723;51.436;5.976;2023-06-22T00:05:10;59.76;55.82;68.93;;
71030;Laerm;63723;51.436;5.976;2023-06-22T00:05:20;60.80;55.88;74.68;;
71030;Laerm;63723;51.436;5.976;2023-06-22T00:05:31;59.66;56.09;70.38;;
71030;Laerm;63723;51.436;5.976;2023-06-22T00:05:41;59.53;56.04;73.62;;
71030;Laerm;63723;51.436;5.976;2023-06-22T00:05:51;59.73;55.85;69.53;;
71030;Laerm;63723;51.436;5.976;2023-06-22T00:06:01;61.04;56.17;69.10;;
71030;Laerm;63723;51.436;5.976;2023-06-22T00:06:12;58.58;56.23;61.60;;
71030;Laerm;63723;51.436;5.976;2023-06-22T00:06:22;59.15;55.72;69.35;;
71030;Laerm;63723;51.436;5.976;2023-06-22T00:06:32;60.13;55.97;70.25;;
71030;Laerm;63723;51.436;5.976;2023-06-22T00:06:42;59.60;55.89;74.45;;
71030;Laerm;63723;51.436;5.976;2023-06-22T00:06:53;58.70;55.18;62.06;;
71030;Laerm;63723;51.436;5.976;2023-06-22T00:07:03;58.84;56.26;61.89;;
71030;Laerm;63723;51.436;5.976;2023-06-22T00:07:13;58.94;55.88;65.08;;
71030;Laerm;63723;51.436;5.976;2023-06-22T00:07:23;58.90;55.97;67.80;;
71030;Laerm;63723;51.436;5.976;2023-06-22T00:07:34;58.73;55.74;64.11;;
71030;Laerm;63723;51.436;5.976;2023-06-22T00:07:44;59.75;56.53;68.44;;
71030;Laerm;63723;51.436;5.976;2023-06-22T00:07:54;59.96;56.31;76.78;;
71030;Laerm;63723;51.436;5.976;2023-06-22T00:08:04;59.54;55.80;62.49;;
71030;Laerm;63723;51.436;5.976;2023-06-22T00:08:15;59.78;56.11;69.56;;
71030;Laerm;63723;51.436;5.976;2023-06-22T00:08:26;59.65;56.06;62.92;;
71030;Laerm;63723;51.436;5.976;2023-06-22T00:08:36;60.05;55.67;74.24;;
71030;Laerm;63723;51.436;5.976;2023-06-22T00:08:46;59.65;55.36;63.39;;
71030;Laerm;63723;51.436;5.976;2023-06-22T00:08:56;59.64;56.86;63.68;;
71030;Laerm;63723;51.436;5.976;2023-06-22T00:09:07;59.71;56.57;63.50;;
71030;Laerm;63723;51.436;5.976;2023-06-22T00:09:17;59.57;55.45;63.80;;
71030;Laerm;63723;51.436;5.976;2023-06-22T00:09:27;59.71;55.35;63.70;;
71030;Laerm;63723;51.436;5.976;2023-06-22T00:09:37;59.67;55.29;62.88;;
71030;Laerm;63723;51.436;5.976;2023-06-22T00:09:48;59.63;55.81;62.79;;
71030;Laerm;63723;51.436;5.976;2023-06-22T00:09:58;59.48;55.91;63.00;;
71030;Laerm;63723;51.436;5.976;2023-06-22T00:10:08;59.37;56.83;62.61;;
71030;Laerm;63723;51.436;5.976;2023-06-22T00:10:18;59.37;55.99;75.10;;
71030;Laerm;63723;51.436;5.976;2023-06-22T00:10:29;59.82;56.03;74.51;;
71030;Laerm;63723;51.436;5.976;2023-06-22T00:10:39;59.18;56.30;73.55;;
71030;Laerm;63723;51.436;5.976;2023-06-22T00:10:50;59.11;56.22;74.24;;
71030;Laerm;63723;51.436;5.976;2023-06-22T00:11:00;59.17;56.07;67.66;;
71030;Laerm;63723;51.436;5.976;2023-06-22T00:11:10;59.06;56.49;65.52;;
71030;Laerm;63723;51.436;5.976;2023-06-22T00:11:20;59.21;55.83;67.73;;
71030;Laerm;63723;51.436;5.976;2023-06-22T00:11:31;60.00;55.74;69.42;;
71030;Laerm;63723;51.436;5.976;2023-06-22T00:11:43;61.19;56.10;70.19;;
71030;Laerm;63723;51.436;5.976;2023-06-22T00:11:53;59.82;55.90;73.87;;
71030;Laerm;63723;51.436;5.976;2023-06-22T00:12:04;58.76;56.09;61.48;;
71030;Laerm;63723;51.436;5.976;2023-06-22T00:12:14;58.65;54.89;61.49;;
71030;Laerm;63723;51.436;5.976;2023-06-22T00:12:24;58.41;55.78;60.79;;
71030;Laerm;63723;51.436;5.976;2023-06-22T00:12:34;60.96;55.27;73.67;;
71030;Laerm;63723;51.436;5.976;2023-06-22T00:12:45;60.54;57.69;66.90;;
71030;Laerm;63723;51.436;5.976;2023-06-22T00:12:55;60.82;57.70;67.63;;
71030;Laerm;63723;51.436;5.976;2023-06-22T00:13:06;61.15;57.99;68.62;;
71030;Laerm;63723;51.436;5.976;2023-06-22T00:13:16;61.08;58.93;69.71;;
71030;Laerm;63723;51.436;5.976;2023-06-22T00:13:27;61.85;58.66;69.07;;
71030;Laerm;63723;51.436;5.976;2023-06-22T00:13:38;61.81;58.91;69.41;;
71030;Laerm;63723;51.436;5.976;2023-06-22T00:13:48;61.34;58.45;63.15;;
71030;Laerm;63723;51.436;5.976;2023-06-22T00:13:59;60.40;57.64;62.67;;
71030;Laerm;63723;51.436;5.976;2023-06-22T00:14:09;60.52;57.83;67.65;;
71030;Laerm;63723;51.436;5.976;2023-06-22T00:14:20;60.88;57.66;69.13;;
71030;Laerm;63723;51.436;5.976;2023-06-22T00:14:30;60.59;58.67;63.21;;
71030;Laerm;63723;51.436;5.976;2023-06-22T00:14:40;59.91;57.64;63.22;;
71030;Laerm;63723;51.436;5.976;2023-06-22T00:14:50;58.92;55.83;61.72;;
71030;Laerm;63723;51.436;5.976;2023-06-22T00:15:01;60.07;55.64;68.92;;
71030;Laerm;63723;51.436;5.976;2023-06-22T00:15:11;59.79;55.14;74.68;;
71030;Laerm;63723;51.436;5.976;2023-06-22T00:15:21;58.51;55.88;61.08;;
71030;Laerm;63723;51.436;5.976;2023-06-22T00:15:31;61.17;55.26;70.30;;
71030;Laerm;63723;51.436;5.976;2023-06-22T00:15:42;58.44;55.72;64.45;;
71030;Laerm;63723;51.436;5.976;2023-06-22T00:15:52;58.47;55.80;60.58;;
71030;Laerm;63723;51.436;5.976;2023-06-22T00:16:02;58.82;55.91;67.83;;
71030;Laerm;63723;51.436;5.976;2023-06-22T00:16:12;58.39;55.66;61.47;;
71030;Laerm;63723;51.436;5.976;2023-06-22T00:16:23;59.04;55.11;74.24;;
71030;Laerm;63723;51.436;5.976;2023-06-22T00:16:33;58.67;54.84;66.59;;
71030;Laerm;63723;51.436;5.976;2023-06-22T00:16:43;59.32;55.79;68.28;;
71030;Laerm;63723;51.436;5.976;2023-06-22T00:16:53;59.11;56.08;73.02;;
71030;Laerm;63723;51.436;5.976;2023-06-22T00:17:05;58.49;55.72;61.22;;
71030;Laerm;63723;51.436;5.976;2023-06-22T00:17:15;58.98;55.42;74.36;;
71030;Laerm;63723;51.436;5.976;2023-06-22T00:17:25;58.96;55.27;68.90;;
71030;Laerm;63723;51.436;5.976;2023-06-22T00:17:36;58.67;55.57;67.86;;
71030;Laerm;63723;51.436;5.976;2023-06-22T00:17:46;59.19;55.83;67.51;;
71030;Laerm;63723;51.436;5.976;2023-06-22T00:17:56;58.71;55.96;65.06;;
71030;Laerm;63723;51.436;5.976;2023-06-22T00:18:07;59.64;55.58;74.77;;
71030;Laerm;63723;51.436;5.976;2023-06-22T00:18:17;58.82;55.63;72.61;;
71030;Laerm;63723;51.436;5.976;2023-06-22T00:18:28;59.80;55.56;69.39;;
71030;Laerm;63723;51.436;5.976;2023-06-22T00:18:40;59.03;55.73;74.11;;
71030;Laerm;63723;51.436;5.976;2023-06-22T00:18:56;59.52;55.29;73.93;;
71030;Laerm;63723;51.436;5.976;2023-06-22T00:19:10;59.09;55.45;68.41;;
71030;Laerm;63723;51.436;5.976;2023-06-22T00:19:21;59.56;55.85;70.04;;
71030;Laerm;63723;51.436;5.976;2023-06-22T00:19:32;58.61;55.43;62.38;;
71030;Laerm;63723;51.436;5.976;2023-06-22T00:19:46;58.53;55.44;61.82;;
71030;Laerm;63723;51.436;5.976;2023-06-22T00:19:57;58.79;56.14;68.16;;
71030;Laerm;63723;51.436;5.976;2023-06-22T00:20:08;58.96;55.66;72.88;;
71030;Laerm;63723;51.436;5.976;2023-06-22T00:20:20;59.10;55.72;74.39;;
71030;Laerm;63723;51.436;5.976;2023-06-22T00:20:30;58.57;55.53;65.97;;
71030;Laerm;63723;51.436;5.976;2023-06-22T00:20:41;59.81;55.91;71.23;;
71030;Laerm;63723;51.436;5.976;2023-06-22T00:20:51;59.31;56.02;74.82;;
71030;Laerm;63723;51.436;5.976;2023-06-22T00:21:06;58.41;55.32;61.37;;
71030;Laerm;63723;51.436;5.976;2023-06-22T00:21:16;59.87;55.71;74.55;;
71030;Laerm;63723;51.436;5.976;2023-06-22T00:21:27;59.73;55.98;68.88;;
71030;Laerm;63723;51.436;5.976;2023-06-22T00:21:37;60.44;55.65;67.73;;
71030;Laerm;63723;51.436;5.976;2023-06-22T00:21:48;59.40;56.03;73.57;;
71030;Laerm;63723;51.436;5.976;2023-06-22T00:22:02;59.01;55.88;61.79;;
71030;Laerm;63723;51.436;5.976;2023-06-22T00:22:13;59.83;56.64;74.53;;
71030;Laerm;63723;51.436;5.976;2023-06-22T00:22:23;59.19;55.81;66.19;;
71030;Laerm;63723;51.436;5.976;2023-06-22T00:22:38;58.99;55.83;66.72;;
71030;Laerm;63723;51.436;5.976;2023-06-22T00:22:49;59.28;55.67;67.43;;
71030;Laerm;63723;51.436;5.976;2023-06-22T00:22:59;59.85;56.06;68.24;;
71030;Laerm;63723;51.436;5.976;2023-06-22T00:23:10;59.47;56.09;67.00;;
71030;Laerm;63723;51.436;5.976;2023-06-22T00:23:20;59.48;56.37;67.71;;
71030;Laerm;63723;51.436;5.976;2023-06-22T00:23:30;59.58;56.40;72.07;;
71030;Laerm;63723;51.436;5.976;2023-06-22T00:23:44;59.68;55.47;67.07;;
71030;Laerm;63723;51.436;5.976;2023-06-22T00:23:54;59.26;55.89;66.34;;
71030;Laerm;63723;51.436;5.976;2023-06-22T00:24:05;59.12;55.80;68.58;;
71030;Laerm;63723;51.436;5.976;2023-06-22T00:24:16;59.10;55.48;65.41;;
71030;Laerm;63723;51.436;5.976;2023-06-22T00:24:26;59.82;56.43;68.64;;
71030;Laerm;63723;51.436;5.976;2023-06-22T00:24:36;59.44;56.06;73.03;;
71030;Laerm;63723;51.436;5.976;2023-06-22T00:24:46;60.09;55.84;68.36;;
71030;Laerm;63723;51.436;5.976;2023-06-22T00:24:57;59.90;55.54;69.29;;
71030;Laerm;63723;51.436;5.976;2023-06-22T00:25:07;58.99;56.35;61.94;;
71030;Laerm;63723;51.436;5.976;2023-06-22T00:25:17;59.53;56.21;67.59;;
71030;Laerm;63723;51.436;5.976;2023-06-22T00:25:27;59.68;56.45;68.79;;
71030;Laerm;63723;51.436;5.976;2023-06-22T00:25:38;59.13;56.34;62.32;;
71030;Laerm;63723;51.436;5.976;2023-06-22T00:25:50;59.26;56.40;65.65;;
71030;Laerm;63723;51.436;5.976;2023-06-22T00:26:00;60.26;56.34;71.97;;
71030;Laerm;63723;51.436;5.976;2023-06-22T00:26:10;60.44;56.29;69.10;;
71030;Laerm;63723;51.436;5.976;2023-06-22T00:26:21;59.30;56.27;66.24;;
71030;Laerm;63723;51.436;5.976;2023-06-22T00:26:31;59.20;56.23;64.73;;
71030;Laerm;63723;51.436;5.976;2023-06-22T00:26:42;59.09;55.79;61.83;;
71030;Laerm;63723;51.436;5.976;2023-06-22T00:26:52;59.09;56.39;61.96;;
71030;Laerm;63723;51.436;5.976;2023-06-22T00:27:02;59.99;55.79;73.99;;
71030;Laerm;63723;51.436;5.976;2023-06-22T00:27:12;59.48;55.90;69.09;;
71030;Laerm;63723;51.436;5.976;2023-06-22T00:27:23;59.33;56.39;68.58;;
71030;Laerm;63723;51.436;5.976;2023-06-22T00:27:33;59.68;54.90;68.53;;
71030;Laerm;63723;51.436;5.976;2023-06-22T00:27:43;59.58;55.62;67.69;;
71030;Laerm;63723;51.436;5.976;2023-06-22T00:27:53;59.16;55.48;67.73;;
71030;Laerm;63723;51.436;5.976;2023-06-22T00:28:04;59.98;55.75;73.60;;
71030;Laerm;63723;51.436;5.976;2023-06-22T00:28:14;58.56;55.21;61.62;;
71030;Laerm;63723;51.436;5.976;2023-06-22T00:28:24;58.84;55.98;68.39;;
71030;Laerm;63723;51.436;5.976;2023-06-22T00:28:35;59.31;55.97;72.95;;
71030;Laerm;63723;51.436;5.976;2023-06-22T00:28:45;58.80;55.77;67.63;;
71030;Laerm;63723;51.436;5.976;2023-06-22T00:28:55;58.91;54.45;68.49;;
71030;Laerm;63723;51.436;5.976;2023-06-22T00:29:05;59.65;55.31;69.25;;
71030;Laerm;63723;51.436;5.976;2023-06-22T00:29:16;58.59;55.30;61.12;;
71030;Laerm;63723;51.436;5.976;2023-06-22T00:29:26;58.87;55.95;65.39;;
71030;Laerm;63723;51.436;5.976;2023-06-22T00:29:37;59.87;55.97;68.22;;
71030;Laerm;63723;51.436;5.976;2023-06-22T00:29:47;58.92;56.06;61.94;;
71030;Laerm;63723;51.436;5.976;2023-06-22T00:29:57;59.11;56.00;61.53;;
71030;Laerm;63723;51.436;5.976;2023-06-22T00:30:07;60.79;55.65;69.30;;
71030;Laerm;63723;51.436;5.976;2023-06-22T00:30:18;59.82;55.99;73.73;;
71030;Laerm;63723;51.436;5.976;2023-06-22T00:30:29;59.66;55.91;75.89;;
71030;Laerm;63723;51.436;5.976;2023-06-22T00:30:40;58.98;56.02;61.50;;
71030;Laerm;63723;51.436;5.976;2023-06-22T00:30:50;59.14;56.37;66.48;;
71030;Laerm;63723;51.436;5.976;2023-06-22T00:31:00;59.16;56.20;66.39;;
71030;Laerm;63723;51.436;5.976;2023-06-22T00:31:11;59.73;56.42;67.71;;
71030;Laerm;63723;51.436;5.976;2023-06-22T00:31:21;59.59;55.94;73.71;;
71030;Laerm;63723;51.436;5.976;2023-06-22T00:31:31;60.27;56.08;68.53;;
71030;Laerm;63723;51.436;5.976;2023-06-22T00:31:41;59.98;56.22;69.24;;
71030;Laerm;63723;51.436;5.976;2023-06-22T00:31:52;59.43;56.69;61.99;;
71030;Laerm;63723;51.436;5.976;2023-06-22T00:32:02;59.19;56.47;62.03;;
71030;Laerm;63723;51.436;5.976;2023-06-22T00:32:13;60.05;56.07;68.18;;
71030;Laerm;63723;51.436;5.976;2023-06-22T00:32:23;59.35;56.05;67.67;;
71030;Laerm;63723;51.436;5.976;2023-06-22T00:32:33;59.59;56.17;75.24;;
71030;Laerm;63723;51.436;5.976;2023-06-22T00:32:44;59.39;56.35;68.85;;
71030;Laerm;63723;51.436;5.976;2023-06-22T00:32:54;60.79;56.24;74.74;;
71030;Laerm;63723;51.436;5.976;2023-06-22T00:33:05;59.12;56.13;67.02;;
71030;Laerm;63723;51.436;5.976;2023-06-22T00:33:17;59.34;56.14;67.90;;
71030;Laerm;63723;51.436;5.976;2023-06-22T00:33:27;59.07;56.28;61.69;;
71030;Laerm;63723;51.436;5.976;2023-06-22T00:33:38;59.72;56.23;68.37;;
71030;Laerm;63723;51.436;5.976;2023-06-22T00:33:48;60.29;55.73;68.88;;
71030;Laerm;63723;51.436;5.976;2023-06-22T00:34:00;59.79;56.55;74.94;;
71030;Laerm;63723;51.436;5.976;2023-06-22T00:34:11;59.64;56.24;68.39;;
71030;Laerm;63723;51.436;5.976;2023-06-22T00:34:21;59.54;56.39;72.90;;
71030;Laerm;63723;51.436;5.976;2023-06-22T00:34:31;60.15;56.13;69.04;;
71030;Laerm;63723;51.436;5.976;2023-06-22T00:34:41;59.22;56.04;61.70;;
71030;Laerm;63723;51.436;5.976;2023-06-22T00:34:51;59.15;55.79;62.76;;
71030;Laerm;63723;51.436;5.976;2023-06-22T00:35:02;60.49;56.48;75.11;;
71030;Laerm;63723;51.436;5.976;2023-06-22T00:35:12;58.96;56.23;62.64;;
71030;Laerm;63723;51.436;5.976;2023-06-22T00:35:23;59.53;56.08;74.57;;
71030;Laerm;63723;51.436;5.976;2023-06-22T00:35:33;59.89;56.00;68.65;;
71030;Laerm;63723;51.436;5.976;2023-06-22T00:35:43;60.06;56.07;74.90;;
71030;Laerm;63723;51.436;5.976;2023-06-22T00:35:54;59.18;56.33;64.74;;
71030;Laerm;63723;51.436;5.976;2023-06-22T00:36:04;59.16;56.28;68.09;;
71030;Laerm;63723;51.436;5.976;2023-06-22T00:36:14;59.40;56.13;67.02;;
71030;Laerm;63723;51.436;5.976;2023-06-22T00:36:27;59.37;56.12;74.83;;
71030;Laerm;63723;51.436;5.976;2023-06-22T00:36:37;58.61;56.02;61.60;;
71030;Laerm;63723;51.436;5.976;2023-06-22T00:36:50;58.91;55.82;66.89;;
71030;Laerm;63723;51.436;5.976;2023-06-22T00:37:01;58.90;56.09;61.90;;
71030;Laerm;63723;51.436;5.976;2023-06-22T00:37:12;58.60;55.92;61.83;;
71030;Laerm;63723;51.436;5.976;2023-06-22T00:37:22;58.60;55.77;61.38;;
71030;Laerm;63723;51.436;5.976;2023-06-22T00:37:36;59.90;56.15;68.11;;
71030;Laerm;63723;51.436;5.976;2023-06-22T00:37:46;59.36;56.48;72.95;;
71030;Laerm;63723;51.436;5.976;2023-06-22T00:37:57;59.68;56.49;69.15;;
71030;Laerm;63723;51.436;5.976;2023-06-22T00:38:10;60.04;56.19;73.02;;
71030;Laerm;63723;51.436;5.976;2023-06-22T00:38:21;59.77;56.59;67.44;;
71030;Laerm;63723;51.436;5.976;2023-06-22T00:38:31;59.37;55.79;73.16;;
71030;Laerm;63723;51.436;5.976;2023-06-22T00:38:41;58.97;55.89;61.30;;
71030;Laerm;63723;51.436;5.976;2023-06-22T00:38:52;58.94;56.20;61.81;;
71030;Laerm;63723;51.436;5.976;2023-06-22T00:39:02;59.50;55.77;68.45;;
71030;Laerm;63723;51.436;5.976;2023-06-22T00:39:13;59.72;56.50;74.29;;
71030;Laerm;63723;51.436;5.976;2023-06-22T00:39:23;58.97;56.20;61.73;;
71030;Laerm;63723;51.436;5.976;2023-06-22T00:39:33;59.42;56.76;62.11;;
71030;Laerm;63723;51.436;5.976;2023-06-22T00:39:44;59.48;56.73;63.00;;
71030;Laerm;63723;51.436;5.976;2023-06-22T00:39:54;59.50;56.35;62.05;;
71030;Laerm;63723;51.436;5.976;2023-06-22T00:40:05;60.30;56.90;74.75;;
71030;Laerm;63723;51.436;5.976;2023-06-22T00:40:15;59.46;56.50;62.95;;
71030;Laerm;63723;51.436;5.976;2023-06-22T00:40:28;59.81;56.43;73.82;;
71030;Laerm;63723;51.436;5.976;2023-06-22T00:40:38;59.40;56.84;61.72;;
71030;Laerm;63723;51.436;5.976;2023-06-22T00:40:48;59.66;56.50;69.19;;
71030;Laerm;63723;51.436;5.976;2023-06-22T00:40:59;59.93;56.76;74.62;;
71030;Laerm;63723;51.436;5.976;2023-06-22T00:41:09;59.41;56.01;62.42;;
71030;Laerm;63723;51.436;5.976;2023-06-22T00:41:19;59.86;56.76;67.35;;
71030;Laerm;63723;51.436;5.976;2023-06-22T00:41:30;59.90;57.00;67.87;;
71030;Laerm;63723;51.436;5.976;2023-06-22T00:41:40;60.54;56.70;68.39;;
71030;Laerm;63723;51.436;5.976;2023-06-22T00:41:50;59.67;56.85;73.23;;
71030;Laerm;63723;51.436;5.976;2023-06-22T00:42:01;59.85;56.47;67.01;;
71030;Laerm;63723;51.436;5.976;2023-06-22T00:42:11;59.77;56.28;74.15;;
71030;Laerm;63723;51.436;5.976;2023-06-22T00:42:21;59.54;56.79;66.72;;
71030;Laerm;63723;51.436;5.976;2023-06-22T00:42:31;60.66;57.02;74.70;;
71030;Laerm;63723;51.436;5.976;2023-06-22T00:42:42;59.54;56.55;62.29;;
71030;Laerm;63723;51.436;5.976;2023-06-22T00:42:52;60.30;56.97;72.85;;
71030;Laerm;63723;51.436;5.976;2023-06-22T00:43:02;59.83;56.63;67.28;;
71030;Laerm;63723;51.436;5.976;2023-06-22T00:43:13;60.91;56.40;74.02;;
71030;Laerm;63723;51.436;5.976;2023-06-22T00:43:23;59.94;56.78;67.53;;
71030;Laerm;63723;51.436;5.976;2023-06-22T00:43:33;60.57;56.63;69.56;;
71030;Laerm;63723;51.436;5.976;2023-06-22T00:43:43;59.28;56.24;62.25;;
71030;Laerm;63723;51.436;5.976;2023-06-22T00:43:54;59.29;56.73;62.16;;
71030;Laerm;63723;51.436;5.976;2023-06-22T00:44:04;59.30;56.50;61.79;;
71030;Laerm;63723;51.436;5.976;2023-06-22T00:44:14;60.17;56.58;74.94;;
71030;Laerm;63723;51.436;5.976;2023-06-22T00:44:25;61.25;56.50;69.02;;
71030;Laerm;63723;51.436;5.976;2023-06-22T00:44:35;60.26;56.63;75.33;;
71030;Laerm;63723;51.436;5.976;2023-06-22T00:44:45;59.82;56.52;73.53;;
71030;Laerm;63723;51.436;5.976;2023-06-22T00:44:56;59.59;56.74;65.75;;
71030;Laerm;63723;51.436;5.976;2023-06-22T00:45:06;59.76;56.74;74.96;;
71030;Laerm;63723;51.436;5.976;2023-06-22T00:45:17;59.49;56.51;62.04;;
71030;Laerm;63723;51.436;5.976;2023-06-22T00:45:27;59.44;56.30;61.78;;
71030;Laerm;63723;51.436;5.976;2023-06-22T00:45:37;59.76;56.46;74.16;;
71030;Laerm;63723;51.436;5.976;2023-06-22T00:45:48;60.96;56.24;75.12;;
71030;Laerm;63723;51.436;5.976;2023-06-22T00:45:58;59.48;56.68;62.40;;
71030;Laerm;63723;51.436;5.976;2023-06-22T00:46:08;59.84;56.08;69.51;;
71030;Laerm;63723;51.436;5.976;2023-06-22T00:46:19;59.84;56.83;69.45;;
71030;Laerm;63723;51.436;5.976;2023-06-22T00:46:30;59.53;56.75;66.38;;
71030;Laerm;63723;51.436;5.976;2023-06-22T00:46:40;60.80;57.12;74.71;;
71030;Laerm;63723;51.436;5.976;2023-06-22T00:46:50;59.47;57.00;62.10;;
71030;Laerm;63723;51.436;5.976;2023-06-22T00:47:01;59.40;56.66;64.67;;
71030;Laerm;63723;51.436;5.976;2023-06-22T00:47:12;61.31;56.62;73.35;;
71030;Laerm;63723;51.436;5.976;2023-06-22T00:47:23;59.99;56.69;69.50;;
71030;Laerm;63723;51.436;5.976;2023-06-22T00:47:34;59.41;56.82;62.29;;
71030;Laerm;63723;51.436;5.976;2023-06-22T00:47:45;61.06;57.06;69.92;;
71030;Laerm;63723;51.436;5.976;2023-06-22T00:47:56;59.58;56.75;67.40;;
71030;Laerm;63723;51.436;5.976;2023-06-22T00:48:07;60.21;56.99;69.59;;
71030;Laerm;63723;51.436;5.976;2023-06-22T00:48:18;60.61;57.02;75.51;;
71030;Laerm;63723;51.436;5.976;2023-06-22T00:48:28;59.95;56.84;74.31;;
71030;Laerm;63723;51.436;5.976;2023-06-22T00:48:38;60.65;56.83;75.83;;
71030;Laerm;63723;51.436;5.976;2023-06-22T00:48:50;59.29;56.77;63.54;;
71030;Laerm;63723;51.436;5.976;2023-06-22T00:49:01;59.46;56.79;69.97;;
71030;Laerm;63723;51.436;5.976;2023-06-22T00:49:13;59.87;56.65;73.65;;
71030;Laerm;63723;51.436;5.976;2023-06-22T00:49:24;59.48;57.02;62.51;;
71030;Laerm;63723;51.436;5.976;2023-06-22T00:49:34;59.91;56.68;68.00;;
71030;Laerm;63723;51.436;5.976;2023-06-22T00:49:45;59.55;56.00;62.74;;
71030;Laerm;63723;51.436;5.976;2023-06-22T00:49:57;59.70;56.81;66.30;;
71030;Laerm;63723;51.436;5.976;2023-06-22T00:50:07;59.89;56.32;66.95;;
71030;Laerm;63723;51.436;5.976;2023-06-22T00:50:20;60.67;56.52;68.10;;
71030;Laerm;63723;51.436;5.976;2023-06-22T00:50:34;59.54;56.86;62.14;;
71030;Laerm;63723;51.436;5.976;2023-06-22T00:50:44;60.36;56.83;62.83;;
71030;Laerm;63723;51.436;5.976;2023-06-22T00:50:55;60.46;57.78;64.52;;
71030;Laerm;63723;51.436;5.976;2023-06-22T00:51:06;60.37;58.02;65.95;;
71030;Laerm;63723;51.436;5.976;2023-06-22T00:51:16;60.37;57.68;64.54;;
71030;Laerm;63723;51.436;5.976;2023-06-22T00:51:26;61.05;58.28;75.39;;
71030;Laerm;63723;51.436;5.976;2023-06-22T00:51:37;60.85;58.49;75.63;;
71030;Laerm;63723;51.436;5.976;2023-06-22T00:51:48;61.30;58.16;68.87;;
71030;Laerm;63723;51.436;5.976;2023-06-22T00:51:59;61.00;58.33;69.89;;
71030;Laerm;63723;51.436;5.976;2023-06-22T00:52:09;60.66;58.01;62.90;;
71030;Laerm;63723;51.436;5.976;2023-06-22T00:52:23;61.41;58.18;69.28;;
71030;Laerm;63723;51.436;5.976;2023-06-22T00:52:39;60.62;58.42;63.12;;
71030;Laerm;63723;51.436;5.976;2023-06-22T00:52:56;61.67;57.90;69.78;;
71030;Laerm;63723;51.436;5.976;2023-06-22T00:53:08;60.84;58.52;63.06;;
71030;Laerm;63723;51.436;5.976;2023-06-22T00:53:18;61.08;57.82;66.55;;
71030;Laerm;63723;51.436;5.976;2023-06-22T00:53:29;61.01;57.80;63.72;;
71030;Laerm;63723;51.436;5.976;2023-06-22T00:53:43;60.62;57.58;63.66;;
71030;Laerm;63723;51.436;5.976;2023-06-22T00:53:53;60.20;58.04;62.68;;
71030;Laerm;63723;51.436;5.976;2023-06-22T00:54:04;60.90;57.57;68.34;;
71030;Laerm;63723;51.436;5.976;2023-06-22T00:54:15;60.35;57.91;62.72;;
71030;Laerm;63723;51.436;5.976;2023-06-22T00:54:25;60.34;58.06;62.64;;
71030;Laerm;63723;51.436;5.976;2023-06-22T00:54:36;60.94;58.14;69.29;;
71030;Laerm;63723;51.436;5.976;2023-06-22T00:54:49;60.49;57.70;62.56;;
71030;Laerm;63723;51.436;5.976;2023-06-22T00:55:02;60.73;57.22;68.87;;
71030;Laerm;63723;51.436;5.976;2023-06-22T00:55:13;61.44;57.87;69.89;;
71030;Laerm;63723;51.436;5.976;2023-06-22T00:55:24;61.42;58.47;68.21;;
71030;Laerm;63723;51.436;5.976;2023-06-22T00:55:36;60.53;57.88;62.77;;
71030;Laerm;63723;51.436;5.976;2023-06-22T00:55:48;60.32;57.98;63.54;;
71030;Laerm;63723;51.436;5.976;2023-06-22T00:56:01;60.37;58.14;62.55;;
71030;Laerm;63723;51.436;5.976;2023-06-22T00:56:13;60.11;57.70;62.50;;
71030;Laerm;63723;51.436;5.976;2023-06-22T00:56:23;60.67;58.20;64.25;;
71030;Laerm;63723;51.436;5.976;2023-06-22T00:56:34;60.77;57.74;74.29;;
71030;Laerm;63723;51.436;5.976;2023-06-22T00:56:47;61.90;58.62;75.09;;
71030;Laerm;63723;51.436;5.976;2023-06-22T00:56:58;60.25;57.62;62.74;;
71030;Laerm;63723;51.436;5.976;2023-06-22T00:57:08;60.27;57.97;62.75;;
71030;Laerm;63723;51.436;5.976;2023-06-22T00:57:21;60.54;57.58;73.21;;
71030;Laerm;63723;51.436;5.976;2023-06-22T00:57:32;60.18;57.50;62.51;;
71030;Laerm;63723;51.436;5.976;2023-06-22T00:57:42;60.41;58.08;63.75;;
71030;Laerm;63723;51.436;5.976;2023-06-22T00:57:52;60.43;57.85;65.15;;
71030;Laerm;63723;51.436;5.976;2023-06-22T00:58:06;60.21;57.25;63.11;;
71030;Laerm;63723;51.436;5.976;2023-06-22T00:58:20;60.22;57.26;62.52;;
71030;Laerm;63723;51.436;5.976;2023-06-22T00:58:36;60.74;57.15;75.39;;
71030;Laerm;63723;51.436;5.976;2023-06-22T00:58:46;60.20;57.27;62.41;;
71030;Laerm;63723;51.436;5.976;2023-06-22T00:58:57;60.59;57.94;73.61;;
71030;Laerm;63723;51.436;5.976;2023-06-22T00:59:09;61.05;57.24;67.60;;
71030;Laerm;63723;51.436;5.976;2023-06-22T00:59:23;60.66;57.17;68.21;;
71030;Laerm;63723;51.436;5.976;2023-06-22T00:59:33;60.67;57.96;74.11;;
71030;Laerm;63723;51.436;5.976;2023-06-22T00:59:44;60.53;58.03;64.19;;
71030;Laerm;63723;51.436;5.976;2023-06-22T00:59:55;60.49;56.87;66.59;;
71030;Laerm;63723;51.436;5.976;2023-06-22T01:00:05;60.36;57.23;63.22;;
71030;Laerm;63723;51.436;5.976;2023-06-22T01:00:17;60.55;57.65;65.13;;